sensor_id;sensor_type;location;lat;lon;timestamp;P1;durP1;ratioP1;P2;durP2;ratioP2
22963;SDS011;11648;49.306;6.934;2023-10-09T00:02:08;12.73;;;6.90;;
22963;SDS011;11648;49.306;6.934;2023-10-09T00:04:38;10.87;;;6.70;;
22963;SDS011;11648;49.306;6.934;2023-10-09T00:07:09;11.53;;;6.47;;
22963;SDS011;11648;49.306;6.934;2023-10-09T00:09:37;12.67;;;6.67;;
22963;SDS011;11648;49.306;6.934;2023-10-09T00:12:17;13.40;;;6.70;;
22963;SDS011;11648;49.306;6.934;2023-10-09T00:14:54;11.93;;;6.87;;
22963;SDS011;11648;49.306;6.934;2023-10-09T00:17:33;12.97;;;7.00;;
22963;SDS011;11648;49.306;6.934;2023-10-09T00:20:00;12.00;;;6.57;;
22963;SDS011;11648;49.306;6.934;2023-10-09T00:22:34;10.27;;;6.13;;
22963;SDS011;11648;49.306;6.934;2023-10-09T00:25:08;9.87;;;6.30;;
22963;SDS011;11648;49.306;6.934;2023-10-09T00:27:38;11.30;;;6.60;;
22963;SDS011;11648;49.306;6.934;2023-10-09T00:30:13;16.37;;;7.10;;
22963;SDS011;11648;49.306;6.934;2023-10-09T00:32:57;12.47;;;7.27;;
22963;SDS011;11648;49.306;6.934;2023-10-09T00:35:25;11.67;;;6.60;;
22963;SDS011;11648;49.306;6.934;2023-10-09T00:38:13;12.30;;;6.80;;
22963;SDS011;11648;49.306;6.934;2023-10-09T00:40:50;10.47;;;6.27;;
22963;SDS011;11648;49.306;6.934;2023-10-09T00:43:30;11.50;;;7.00;;
22963;SDS011;11648;49.306;6.934;2023-10-09T00:45:59;13.23;;;8.10;;
22963;SDS011;11648;49.306;6.934;2023-10-09T00:48:38;15.27;;;7.30;;
22963;SDS011;11648;49.306;6.934;2023-10-09T00:51:08;15.33;;;7.87;;
22963;SDS011;11648;49.306;6.934;2023-10-09T00:53:46;16.70;;;8.77;;
22963;SDS011;11648;49.306;6.934;2023-10-09T00:56:19;14.60;;;8.07;;
22963;SDS011;11648;49.306;6.934;2023-10-09T00:58:53;13.83;;;7.53;;
22963;SDS011;11648;49.306;6.934;2023-10-09T01:01:42;14.20;;;7.10;;
22963;SDS011;11648;49.306;6.934;2023-10-09T01:04:23;14.33;;;7.43;;
22963;SDS011;11648;49.306;6.934;2023-10-09T01:06:52;13.23;;;7.13;;
22963;SDS011;11648;49.306;6.934;2023-10-09T01:09:39;13.40;;;6.60;;
22963;SDS011;11648;49.306;6.934;2023-10-09T01:12:11;10.97;;;6.80;;
22963;SDS011;11648;49.306;6.934;2023-10-09T01:14:45;10.90;;;6.70;;
22963;SDS011;11648;49.306;6.934;2023-10-09T01:17:19;13.23;;;6.90;;
22963;SDS011;11648;49.306;6.934;2023-10-09T01:19:56;12.93;;;6.87;;
22963;SDS011;11648;49.306;6.934;2023-10-09T01:22:24;12.93;;;7.10;;
22963;SDS011;11648;49.306;6.934;2023-10-09T01:24:51;9.27;;;6.00;;
22963;SDS011;11648;49.306;6.934;2023-10-09T01:27:21;11.50;;;6.50;;
22963;SDS011;11648;49.306;6.934;2023-10-09T01:29:52;11.43;;;6.23;;
22963;SDS011;11648;49.306;6.934;2023-10-09T01:32:19;13.23;;;6.97;;
22963;SDS011;11648;49.306;6.934;2023-10-09T01:34:46;12.07;;;6.60;;
22963;SDS011;11648;49.306;6.934;2023-10-09T01:37:18;11.87;;;6.73;;
22963;SDS011;11648;49.306;6.934;2023-10-09T01:39:50;13.50;;;7.60;;
22963;SDS011;11648;49.306;6.934;2023-10-09T01:42:25;10.83;;;6.70;;
22963;SDS011;11648;49.306;6.934;2023-10-09T01:45:02;15.37;;;7.60;;
22963;SDS011;11648;49.306;6.934;2023-10-09T01:47:49;16.40;;;8.00;;
22963;SDS011;11648;49.306;6.934;2023-10-09T01:50:20;13.43;;;7.43;;
22963;SDS011;11648;49.306;6.934;2023-10-09T01:52:49;12.20;;;6.90;;
22963;SDS011;11648;49.306;6.934;2023-10-09T01:55:17;13.73;;;7.47;;
22963;SDS011;11648;49.306;6.934;2023-10-09T01:58:00;12.30;;;7.82;;
22963;SDS011;11648;49.306;6.934;2023-10-09T02:00:47;14.37;;;7.50;;
22963;SDS011;11648;49.306;6.934;2023-10-09T02:03:23;11.10;;;6.77;;
22963;SDS011;11648;49.306;6.934;2023-10-09T02:05:51;12.10;;;6.73;;
22963;SDS011;11648;49.306;6.934;2023-10-09T02:08:20;11.93;;;7.07;;
22963;SDS011;11648;49.306;6.934;2023-10-09T02:10:53;13.67;;;7.23;;
22963;SDS011;11648;49.306;6.934;2023-10-09T02:13:22;12.63;;;7.13;;
22963;SDS011;11648;49.306;6.934;2023-10-09T02:15:56;13.50;;;6.67;;
22963;SDS011;11648;49.306;6.934;2023-10-09T02:18:41;11.50;;;6.43;;
22963;SDS011;11648;49.306;6.934;2023-10-09T02:21:22;12.50;;;7.00;;
22963;SDS011;11648;49.306;6.934;2023-10-09T02:24:01;14.10;;;7.30;;
22963;SDS011;11648;49.306;6.934;2023-10-09T02:26:34;14.70;;;7.47;;
22963;SDS011;11648;49.306;6.934;2023-10-09T02:29:01;13.53;;;6.80;;
22963;SDS011;11648;49.306;6.934;2023-10-09T02:31:32;11.37;;;6.30;;
22963;SDS011;11648;49.306;6.934;2023-10-09T02:34:08;12.77;;;6.90;;
22963;SDS011;11648;49.306;6.934;2023-10-09T02:36:34;12.57;;;6.97;;
22963;SDS011;11648;49.306;6.934;2023-10-09T02:39:05;12.27;;;7.23;;
22963;SDS011;11648;49.306;6.934;2023-10-09T02:41:33;10.93;;;6.67;;
22963;SDS011;11648;49.306;6.934;2023-10-09T02:44:01;13.03;;;6.80;;
22963;SDS011;11648;49.306;6.934;2023-10-09T02:46:38;10.87;;;6.53;;
22963;SDS011;11648;49.306;6.934;2023-10-09T02:49:06;13.73;;;6.50;;
22963;SDS011;11648;49.306;6.934;2023-10-09T02:51:36;12.73;;;6.87;;
22963;SDS011;11648;49.306;6.934;2023-10-09T02:54:09;13.33;;;6.80;;
22963;SDS011;11648;49.306;6.934;2023-10-09T02:56:46;12.53;;;6.40;;
22963;SDS011;11648;49.306;6.934;2023-10-09T02:59:20;13.53;;;7.10;;
22963;SDS011;11648;49.306;6.934;2023-10-09T03:01:50;10.83;;;6.60;;
22963;SDS011;11648;49.306;6.934;2023-10-09T03:04:20;14.27;;;7.53;;
22963;SDS011;11648;49.306;6.934;2023-10-09T03:06:50;11.27;;;7.07;;
22963;SDS011;11648;49.306;6.934;2023-10-09T03:09:17;12.33;;;6.70;;
22963;SDS011;11648;49.306;6.934;2023-10-09T03:11:46;10.57;;;6.20;;
22963;SDS011;11648;49.306;6.934;2023-10-09T03:14:15;12.13;;;6.40;;
22963;SDS011;11648;49.306;6.934;2023-10-09T03:16:47;13.37;;;7.07;;
22963;SDS011;11648;49.306;6.934;2023-10-09T03:19:16;14.07;;;7.50;;
22963;SDS011;11648;49.306;6.934;2023-10-09T03:21:43;12.10;;;7.17;;
22963;SDS011;11648;49.306;6.934;2023-10-09T03:24:10;11.53;;;6.70;;
22963;SDS011;11648;49.306;6.934;2023-10-09T03:26:38;12.73;;;7.60;;
22963;SDS011;11648;49.306;6.934;2023-10-09T03:29:05;15.23;;;7.10;;
22963;SDS011;11648;49.306;6.934;2023-10-09T03:31:39;10.60;;;7.07;;
22963;SDS011;11648;49.306;6.934;2023-10-09T03:34:09;11.37;;;6.20;;
22963;SDS011;11648;49.306;6.934;2023-10-09T03:36:37;14.83;;;7.40;;
22963;SDS011;11648;49.306;6.934;2023-10-09T03:39:05;12.97;;;6.80;;
22963;SDS011;11648;49.306;6.934;2023-10-09T03:41:44;12.67;;;6.40;;
22963;SDS011;11648;49.306;6.934;2023-10-09T03:44:14;12.90;;;7.37;;
22963;SDS011;11648;49.306;6.934;2023-10-09T03:46:45;11.43;;;6.83;;
22963;SDS011;11648;49.306;6.934;2023-10-09T03:49:12;13.30;;;6.90;;
22963;SDS011;11648;49.306;6.934;2023-10-09T03:51:42;14.50;;;7.30;;
22963;SDS011;11648;49.306;6.934;2023-10-09T03:54:09;11.67;;;6.47;;
22963;SDS011;11648;49.306;6.934;2023-10-09T03:56:36;13.20;;;7.60;;
22963;SDS011;11648;49.306;6.934;2023-10-09T03:59:03;14.13;;;7.93;;
22963;SDS011;11648;49.306;6.934;2023-10-09T04:01:30;15.17;;;7.80;;
22963;SDS011;11648;49.306;6.934;2023-10-09T04:04:07;13.53;;;7.50;;
22963;SDS011;11648;49.306;6.934;2023-10-09T04:06:37;12.30;;;8.03;;
22963;SDS011;11648;49.306;6.934;2023-10-09T04:09:08;14.13;;;8.27;;
22963;SDS011;11648;49.306;6.934;2023-10-09T04:14:24;16.40;;;8.23;;
22963;SDS011;11648;49.306;6.934;2023-10-09T04:16:59;17.07;;;8.30;;
22963;SDS011;11648;49.306;6.934;2023-10-09T04:19:35;17.30;;;8.87;;
22963;SDS011;11648;49.306;6.934;2023-10-09T04:22:14;18.30;;;8.30;;
22963;SDS011;11648;49.306;6.934;2023-10-09T04:24:54;19.03;;;8.27;;
22963;SDS011;11648;49.306;6.934;2023-10-09T04:27:20;15.87;;;8.33;;
22963;SDS011;11648;49.306;6.934;2023-10-09T04:29:53;14.23;;;7.70;;
22963;SDS011;11648;49.306;6.934;2023-10-09T04:32:20;14.33;;;7.57;;
22963;SDS011;11648;49.306;6.934;2023-10-09T04:34:51;13.43;;;6.83;;
22963;SDS011;11648;49.306;6.934;2023-10-09T04:37:44;10.43;;;6.03;;
22963;SDS011;11648;49.306;6.934;2023-10-09T04:40:18;11.27;;;6.30;;
22963;SDS011;11648;49.306;6.934;2023-10-09T04:43:04;12.20;;;6.87;;
22963;SDS011;11648;49.306;6.934;2023-10-09T04:45:36;11.50;;;6.70;;
22963;SDS011;11648;49.306;6.934;2023-10-09T04:48:26;10.87;;;6.80;;
22963;SDS011;11648;49.306;6.934;2023-10-09T04:51:00;13.77;;;8.13;;
22963;SDS011;11648;49.306;6.934;2023-10-09T04:53:46;13.53;;;7.80;;
22963;SDS011;11648;49.306;6.934;2023-10-09T04:56:21;13.70;;;7.93;;
22963;SDS011;11648;49.306;6.934;2023-10-09T04:58:50;14.37;;;7.53;;
22963;SDS011;11648;49.306;6.934;2023-10-09T05:01:30;15.70;;;7.50;;
22963;SDS011;11648;49.306;6.934;2023-10-09T05:04:03;16.23;;;7.53;;
22963;SDS011;11648;49.306;6.934;2023-10-09T05:06:46;14.13;;;8.10;;
22963;SDS011;11648;49.306;6.934;2023-10-09T05:09:22;15.90;;;7.13;;
22963;SDS011;11648;49.306;6.934;2023-10-09T05:11:50;14.20;;;7.60;;
22963;SDS011;11648;49.306;6.934;2023-10-09T05:14:20;11.30;;;6.97;;
22963;SDS011;11648;49.306;6.934;2023-10-09T05:16:54;10.60;;;6.50;;
22963;SDS011;11648;49.306;6.934;2023-10-09T05:19:22;11.87;;;7.00;;
22963;SDS011;11648;49.306;6.934;2023-10-09T05:21:56;12.13;;;6.83;;
22963;SDS011;11648;49.306;6.934;2023-10-09T05:24:25;12.27;;;6.67;;
22963;SDS011;11648;49.306;6.934;2023-10-09T05:26:55;12.27;;;7.13;;
22963;SDS011;11648;49.306;6.934;2023-10-09T05:29:42;13.60;;;7.20;;
22963;SDS011;11648;49.306;6.934;2023-10-09T05:32:26;13.00;;;6.67;;
22963;SDS011;11648;49.306;6.934;2023-10-09T05:35:01;14.13;;;7.27;;
22963;SDS011;11648;49.306;6.934;2023-10-09T05:37:31;12.93;;;7.20;;
22963;SDS011;11648;49.306;6.934;2023-10-09T05:40:01;37.90;;;8.47;;
22963;SDS011;11648;49.306;6.934;2023-10-09T05:42:32;31.33;;;8.60;;
22963;SDS011;11648;49.306;6.934;2023-10-09T05:47:44;22.50;;;8.07;;
22963;SDS011;11648;49.306;6.934;2023-10-09T05:50:33;15.17;;;8.60;;
22963;SDS011;11648;49.306;6.934;2023-10-09T05:53:00;16.93;;;8.40;;
22963;SDS011;11648;49.306;6.934;2023-10-09T05:55:30;17.07;;;7.87;;
22963;SDS011;11648;49.306;6.934;2023-10-09T05:58:35;15.50;;;8.63;;
22963;SDS011;11648;49.306;6.934;2023-10-09T06:01:20;16.40;;;9.00;;
22963;SDS011;11648;49.306;6.934;2023-10-09T06:04:06;16.30;;;7.43;;
22963;SDS011;11648;49.306;6.934;2023-10-09T06:06:43;12.77;;;8.10;;
22963;SDS011;11648;49.306;6.934;2023-10-09T06:09:12;15.70;;;8.30;;
22963;SDS011;11648;49.306;6.934;2023-10-09T06:11:42;15.30;;;7.80;;
22963;SDS011;11648;49.306;6.934;2023-10-09T06:14:17;13.17;;;7.67;;
22963;SDS011;11648;49.306;6.934;2023-10-09T06:16:57;12.63;;;7.13;;
22963;SDS011;11648;49.306;6.934;2023-10-09T06:19:29;13.57;;;7.73;;
22963;SDS011;11648;49.306;6.934;2023-10-09T06:21:58;12.23;;;7.87;;
22963;SDS011;11648;49.306;6.934;2023-10-09T06:24:44;13.10;;;7.60;;
22963;SDS011;11648;49.306;6.934;2023-10-09T06:27:21;13.17;;;7.20;;
22963;SDS011;11648;49.306;6.934;2023-10-09T06:29:58;13.03;;;7.50;;
22963;SDS011;11648;49.306;6.934;2023-10-09T06:32:43;15.77;;;9.67;;
22963;SDS011;11648;49.306;6.934;2023-10-09T06:35:46;13.37;;;8.40;;
22963;SDS011;11648;49.306;6.934;2023-10-09T06:38:22;15.43;;;9.27;;
22963;SDS011;11648;49.306;6.934;2023-10-09T06:40:50;17.17;;;8.90;;
22963;SDS011;11648;49.306;6.934;2023-10-09T06:43:33;12.13;;;8.17;;
22963;SDS011;11648;49.306;6.934;2023-10-09T06:46:03;14.10;;;7.83;;
22963;SDS011;11648;49.306;6.934;2023-10-09T06:48:48;11.73;;;7.13;;
22963;SDS011;11648;49.306;6.934;2023-10-09T06:51:26;13.07;;;7.50;;
22963;SDS011;11648;49.306;6.934;2023-10-09T06:53:56;11.67;;;6.83;;
22963;SDS011;11648;49.306;6.934;2023-10-09T06:56:32;12.37;;;7.33;;
22963;SDS011;11648;49.306;6.934;2023-10-09T06:59:00;13.17;;;7.57;;
22963;SDS011;11648;49.306;6.934;2023-10-09T07:01:43;11.97;;;7.23;;
22963;SDS011;11648;49.306;6.934;2023-10-09T07:04:14;14.27;;;7.70;;
22963;SDS011;11648;49.306;6.934;2023-10-09T07:07:07;14.90;;;8.00;;
22963;SDS011;11648;49.306;6.934;2023-10-09T07:09:40;12.83;;;8.40;;
22963;SDS011;11648;49.306;6.934;2023-10-09T07:12:10;12.00;;;6.70;;
22963;SDS011;11648;49.306;6.934;2023-10-09T07:14:47;10.67;;;7.20;;
22963;SDS011;11648;49.306;6.934;2023-10-09T07:17:13;12.83;;;7.47;;
22963;SDS011;11648;49.306;6.934;2023-10-09T07:19:43;13.53;;;7.73;;
22963;SDS011;11648;49.306;6.934;2023-10-09T07:22:14;15.37;;;7.87;;
22963;SDS011;11648;49.306;6.934;2023-10-09T07:27:26;14.37;;;8.37;;
22963;SDS011;11648;49.306;6.934;2023-10-09T07:30:13;15.67;;;8.97;;
22963;SDS011;11648;49.306;6.934;2023-10-09T07:33:02;14.80;;;8.33;;
22963;SDS011;11648;49.306;6.934;2023-10-09T07:35:43;15.53;;;7.67;;
22963;SDS011;11648;49.306;6.934;2023-10-09T07:38:15;14.83;;;8.30;;
22963;SDS011;11648;49.306;6.934;2023-10-09T07:40:46;12.73;;;7.50;;
22963;SDS011;11648;49.306;6.934;2023-10-09T07:43:46;12.73;;;8.13;;
22963;SDS011;11648;49.306;6.934;2023-10-09T07:46:14;17.20;;;10.07;;
22963;SDS011;11648;49.306;6.934;2023-10-09T07:49:18;17.97;;;9.67;;
22963;SDS011;11648;49.306;6.934;2023-10-09T07:51:52;17.97;;;9.03;;
22963;SDS011;11648;49.306;6.934;2023-10-09T07:54:25;16.57;;;9.13;;
22963;SDS011;11648;49.306;6.934;2023-10-09T07:57:02;16.67;;;8.97;;
22963;SDS011;11648;49.306;6.934;2023-10-09T07:59:35;13.87;;;8.60;;
22963;SDS011;11648;49.306;6.934;2023-10-09T08:02:16;16.20;;;8.40;;
22963;SDS011;11648;49.306;6.934;2023-10-09T08:04:43;16.23;;;9.20;;
22963;SDS011;11648;49.306;6.934;2023-10-09T08:07:10;19.80;;;9.47;;
22963;SDS011;11648;49.306;6.934;2023-10-09T08:10:12;16.77;;;8.83;;
22963;SDS011;11648;49.306;6.934;2023-10-09T08:12:45;13.73;;;8.70;;
22963;SDS011;11648;49.306;6.934;2023-10-09T08:15:12;16.37;;;8.90;;
22963;SDS011;11648;49.306;6.934;2023-10-09T08:17:50;16.00;;;8.80;;
22963;SDS011;11648;49.306;6.934;2023-10-09T08:20:23;15.07;;;8.27;;
22963;SDS011;11648;49.306;6.934;2023-10-09T08:22:52;16.87;;;8.27;;
22963;SDS011;11648;49.306;6.934;2023-10-09T08:25:23;15.97;;;8.70;;
22963;SDS011;11648;49.306;6.934;2023-10-09T08:27:58;15.57;;;8.60;;
22963;SDS011;11648;49.306;6.934;2023-10-09T08:30:46;15.60;;;8.20;;
22963;SDS011;11648;49.306;6.934;2023-10-09T08:33:17;19.03;;;7.97;;
22963;SDS011;11648;49.306;6.934;2023-10-09T08:36:13;17.27;;;8.67;;
22963;SDS011;11648;49.306;6.934;2023-10-09T08:38:42;14.83;;;8.00;;
22963;SDS011;11648;49.306;6.934;2023-10-09T08:41:09;14.60;;;6.63;;
22963;SDS011;11648;49.306;6.934;2023-10-09T08:43:47;11.23;;;3.90;;
22963;SDS011;11648;49.306;6.934;2023-10-09T08:46:23;11.07;;;4.30;;
22963;SDS011;11648;49.306;6.934;2023-10-09T08:48:55;10.23;;;4.77;;
22963;SDS011;11648;49.306;6.934;2023-10-09T08:51:26;11.00;;;5.40;;
22963;SDS011;11648;49.306;6.934;2023-10-09T08:53:54;10.80;;;5.53;;
22963;SDS011;11648;49.306;6.934;2023-10-09T08:56:22;12.20;;;6.60;;
22963;SDS011;11648;49.306;6.934;2023-10-09T09:01:18;11.57;;;8.10;;
22963;SDS011;11648;49.306;6.934;2023-10-09T09:03:49;10.73;;;7.47;;
22963;SDS011;11648;49.306;6.934;2023-10-09T09:06:20;12.67;;;6.83;;
22963;SDS011;11648;49.306;6.934;2023-10-09T09:08:48;12.67;;;7.50;;
22963;SDS011;11648;49.306;6.934;2023-10-09T09:11:16;11.53;;;6.30;;
22963;SDS011;11648;49.306;6.934;2023-10-09T09:13:45;11.43;;;5.95;;
22963;SDS011;11648;49.306;6.934;2023-10-09T09:18:56;10.68;;;4.40;;
22963;SDS011;11648;49.306;6.934;2023-10-09T09:21:32;9.45;;;4.10;;
22963;SDS011;11648;49.306;6.934;2023-10-09T09:24:12;8.75;;;3.90;;
22963;SDS011;11648;49.306;6.934;2023-10-09T09:27:01;9.83;;;3.80;;
22963;SDS011;11648;49.306;6.934;2023-10-09T09:29:47;9.17;;;4.00;;
22963;SDS011;11648;49.306;6.934;2023-10-09T09:32:29;8.57;;;4.10;;
22963;SDS011;11648;49.306;6.934;2023-10-09T09:35:03;8.10;;;3.50;;
22963;SDS011;11648;49.306;6.934;2023-10-09T09:37:31;9.60;;;4.10;;
22963;SDS011;11648;49.306;6.934;2023-10-09T09:40:16;8.00;;;3.90;;
22963;SDS011;11648;49.306;6.934;2023-10-09T09:43:00;7.60;;;3.67;;
22963;SDS011;11648;49.306;6.934;2023-10-09T09:45:38;8.73;;;3.93;;
22963;SDS011;11648;49.306;6.934;2023-10-09T09:48:12;8.80;;;3.70;;
22963;SDS011;11648;49.306;6.934;2023-10-09T09:50:43;11.53;;;4.00;;
22963;SDS011;11648;49.306;6.934;2023-10-09T09:53:15;7.63;;;3.20;;
22963;SDS011;11648;49.306;6.934;2023-10-09T09:55:46;10.93;;;3.70;;
22963;SDS011;11648;49.306;6.934;2023-10-09T09:58:25;9.80;;;3.53;;
22963;SDS011;11648;49.306;6.934;2023-10-09T10:01:03;8.50;;;3.50;;
22963;SDS011;11648;49.306;6.934;2023-10-09T10:03:42;12.07;;;3.53;;
22963;SDS011;11648;49.306;6.934;2023-10-09T10:06:14;7.43;;;3.30;;
22963;SDS011;11648;49.306;6.934;2023-10-09T10:08:47;11.13;;;3.63;;
22963;SDS011;11648;49.306;6.934;2023-10-09T10:14:18;10.20;;;3.43;;
22963;SDS011;11648;49.306;6.934;2023-10-09T10:17:01;7.23;;;3.57;;
22963;SDS011;11648;49.306;6.934;2023-10-09T10:22:26;7.82;;;3.67;;
22963;SDS011;11648;49.306;6.934;2023-10-09T10:24:54;9.00;;;3.50;;
22963;SDS011;11648;49.306;6.934;2023-10-09T10:27:21;11.07;;;3.83;;
22963;SDS011;11648;49.306;6.934;2023-10-09T10:35:36;7.68;;;3.63;;
22963;SDS011;11648;49.306;6.934;2023-10-09T10:41:12;10.65;;;4.30;;
22963;SDS011;11648;49.306;6.934;2023-10-09T10:43:43;6.78;;;3.35;;
22963;SDS011;11648;49.306;6.934;2023-10-09T10:46:14;10.43;;;3.80;;
22963;SDS011;11648;49.306;6.934;2023-10-09T10:48:50;7.35;;;3.33;;
22963;SDS011;11648;49.306;6.934;2023-10-09T10:51:27;8.52;;;3.67;;
22963;SDS011;11648;49.306;6.934;2023-10-09T10:54:07;7.40;;;3.17;;
22963;SDS011;11648;49.306;6.934;2023-10-09T10:56:54;8.82;;;3.67;;
22963;SDS011;11648;49.306;6.934;2023-10-09T10:59:24;8.85;;;3.63;;
22963;SDS011;11648;49.306;6.934;2023-10-09T11:01:56;9.23;;;4.20;;
22963;SDS011;11648;49.306;6.934;2023-10-09T11:04:29;6.93;;;3.42;;
22963;SDS011;11648;49.306;6.934;2023-10-09T11:06:56;8.38;;;3.47;;
22963;SDS011;11648;49.306;6.934;2023-10-09T11:09:43;9.40;;;3.75;;
22963;SDS011;11648;49.306;6.934;2023-10-09T11:12:26;9.70;;;4.15;;
22963;SDS011;11648;49.306;6.934;2023-10-09T11:15:06;8.18;;;4.18;;
22963;SDS011;11648;49.306;6.934;2023-10-09T11:17:35;8.38;;;3.92;;
22963;SDS011;11648;49.306;6.934;2023-10-09T11:20:05;8.35;;;3.70;;
22963;SDS011;11648;49.306;6.934;2023-10-09T11:22:51;9.20;;;4.10;;
22963;SDS011;11648;49.306;6.934;2023-10-09T11:25:38;10.20;;;3.80;;
22963;SDS011;11648;49.306;6.934;2023-10-09T11:28:17;9.20;;;3.95;;
22963;SDS011;11648;49.306;6.934;2023-10-09T11:31:10;8.52;;;3.75;;
22963;SDS011;11648;49.306;6.934;2023-10-09T11:33:52;6.22;;;3.63;;
22963;SDS011;11648;49.306;6.934;2023-10-09T11:36:23;9.23;;;3.95;;
22963;SDS011;11648;49.306;6.934;2023-10-09T11:38:59;7.80;;;4.38;;
22963;SDS011;11648;49.306;6.934;2023-10-09T11:41:47;8.18;;;4.00;;
22963;SDS011;11648;49.306;6.934;2023-10-09T11:44:16;8.73;;;3.95;;
22963;SDS011;11648;49.306;6.934;2023-10-09T11:46:57;7.90;;;3.83;;
22963;SDS011;11648;49.306;6.934;2023-10-09T11:49:25;13.20;;;4.40;;
22963;SDS011;11648;49.306;6.934;2023-10-09T11:52:05;6.45;;;4.10;;
22963;SDS011;11648;49.306;6.934;2023-10-09T11:54:35;9.00;;;4.00;;
22963;SDS011;11648;49.306;6.934;2023-10-09T11:57:02;7.88;;;4.20;;
22963;SDS011;11648;49.306;6.934;2023-10-09T11:59:30;10.00;;;4.10;;
22963;SDS011;11648;49.306;6.934;2023-10-09T12:02:05;6.80;;;4.03;;
22963;SDS011;11648;49.306;6.934;2023-10-09T12:04:38;6.90;;;3.72;;
22963;SDS011;11648;49.306;6.934;2023-10-09T12:07:12;7.28;;;4.40;;
22963;SDS011;11648;49.306;6.934;2023-10-09T12:09:38;8.20;;;4.13;;
22963;SDS011;11648;49.306;6.934;2023-10-09T12:12:06;8.13;;;4.32;;
22963;SDS011;11648;49.306;6.934;2023-10-09T12:14:35;10.52;;;4.47;;
22963;SDS011;11648;49.306;6.934;2023-10-09T12:17:04;8.68;;;4.13;;
22963;SDS011;11648;49.306;6.934;2023-10-09T12:19:36;7.88;;;4.07;;
22963;SDS011;11648;49.306;6.934;2023-10-09T12:22:07;11.50;;;4.30;;
22963;SDS011;11648;49.306;6.934;2023-10-09T12:24:45;8.93;;;3.75;;
22963;SDS011;11648;49.306;6.934;2023-10-09T12:27:12;8.55;;;4.38;;
22963;SDS011;11648;49.306;6.934;2023-10-09T12:29:39;8.55;;;4.43;;
22963;SDS011;11648;49.306;6.934;2023-10-09T12:32:13;7.35;;;3.78;;
22963;SDS011;11648;49.306;6.934;2023-10-09T12:34:40;8.35;;;4.00;;
22963;SDS011;11648;49.306;6.934;2023-10-09T12:37:08;8.23;;;4.05;;
22963;SDS011;11648;49.306;6.934;2023-10-09T12:39:35;10.35;;;4.40;;
22963;SDS011;11648;49.306;6.934;2023-10-09T12:42:06;7.63;;;4.00;;
22963;SDS011;11648;49.306;6.934;2023-10-09T12:44:35;9.13;;;4.03;;
22963;SDS011;11648;49.306;6.934;2023-10-09T12:47:09;7.95;;;4.03;;
22963;SDS011;11648;49.306;6.934;2023-10-09T12:49:38;7.70;;;4.07;;
22963;SDS011;11648;49.306;6.934;2023-10-09T12:52:08;10.05;;;4.72;;
22963;SDS011;11648;49.306;6.934;2023-10-09T12:54:43;11.18;;;4.03;;
22963;SDS011;11648;49.306;6.934;2023-10-09T12:57:12;6.20;;;3.65;;
22963;SDS011;11648;49.306;6.934;2023-10-09T12:59:42;7.43;;;3.70;;
22963;SDS011;11648;49.306;6.934;2023-10-09T13:02:13;9.05;;;4.38;;
22963;SDS011;11648;49.306;6.934;2023-10-09T13:04:55;8.70;;;4.05;;
22963;SDS011;11648;49.306;6.934;2023-10-09T13:07:23;7.35;;;3.95;;
22963;SDS011;11648;49.306;6.934;2023-10-09T13:09:49;8.32;;;4.00;;
22963;SDS011;11648;49.306;6.934;2023-10-09T13:12:35;6.90;;;3.50;;
22963;SDS011;11648;49.306;6.934;2023-10-09T13:15:11;9.68;;;4.05;;
22963;SDS011;11648;49.306;6.934;2023-10-09T13:17:38;7.20;;;4.00;;
22963;SDS011;11648;49.306;6.934;2023-10-09T13:20:05;7.47;;;4.30;;
22963;SDS011;11648;49.306;6.934;2023-10-09T13:22:43;7.35;;;3.90;;
22963;SDS011;11648;49.306;6.934;2023-10-09T13:25:11;10.00;;;4.05;;
22963;SDS011;11648;49.306;6.934;2023-10-09T13:28:01;8.38;;;4.05;;
22963;SDS011;11648;49.306;6.934;2023-10-09T13:30:30;8.48;;;4.22;;
22963;SDS011;11648;49.306;6.934;2023-10-09T13:33:05;9.40;;;4.03;;
22963;SDS011;11648;49.306;6.934;2023-10-09T13:35:32;8.40;;;3.78;;
22963;SDS011;11648;49.306;6.934;2023-10-09T13:38:04;10.73;;;4.35;;
22963;SDS011;11648;49.306;6.934;2023-10-09T13:40:36;8.07;;;4.18;;
22963;SDS011;11648;49.306;6.934;2023-10-09T13:43:03;8.02;;;4.10;;
22963;SDS011;11648;49.306;6.934;2023-10-09T13:45:37;7.50;;;4.28;;
22963;SDS011;11648;49.306;6.934;2023-10-09T13:48:05;8.02;;;4.25;;
22963;SDS011;11648;49.306;6.934;2023-10-09T13:50:37;7.75;;;4.20;;
22963;SDS011;11648;49.306;6.934;2023-10-09T13:53:09;8.60;;;4.40;;
22963;SDS011;11648;49.306;6.934;2023-10-09T13:55:38;10.43;;;4.43;;
22963;SDS011;11648;49.306;6.934;2023-10-09T13:58:10;9.70;;;4.28;;
22963;SDS011;11648;49.306;6.934;2023-10-09T14:00:40;8.50;;;4.05;;
22963;SDS011;11648;49.306;6.934;2023-10-09T14:03:10;8.95;;;3.70;;
22963;SDS011;11648;49.306;6.934;2023-10-09T14:05:40;7.75;;;4.50;;
22963;SDS011;11648;49.306;6.934;2023-10-09T14:08:29;10.63;;;4.68;;
22963;SDS011;11648;49.306;6.934;2023-10-09T14:10:56;9.50;;;4.15;;
22963;SDS011;11648;49.306;6.934;2023-10-09T14:13:23;10.52;;;4.03;;
22963;SDS011;11648;49.306;6.934;2023-10-09T14:15:54;7.82;;;4.10;;
22963;SDS011;11648;49.306;6.934;2023-10-09T14:18:24;8.68;;;4.50;;
22963;SDS011;11648;49.306;6.934;2023-10-09T14:20:51;8.07;;;4.10;;
22963;SDS011;11648;49.306;6.934;2023-10-09T14:23:22;8.07;;;4.25;;
22963;SDS011;11648;49.306;6.934;2023-10-09T14:25:51;7.15;;;4.50;;
22963;SDS011;11648;49.306;6.934;2023-10-09T14:28:22;7.97;;;4.07;;
22963;SDS011;11648;49.306;6.934;2023-10-09T14:30:54;8.15;;;4.10;;
22963;SDS011;11648;49.306;6.934;2023-10-09T14:33:26;10.80;;;4.55;;
22963;SDS011;11648;49.306;6.934;2023-10-09T14:35:54;10.27;;;4.50;;
22963;SDS011;11648;49.306;6.934;2023-10-09T14:38:21;9.82;;;4.70;;
22963;SDS011;11648;49.306;6.934;2023-10-09T14:40:53;7.93;;;4.47;;
22963;SDS011;11648;49.306;6.934;2023-10-09T14:43:24;7.75;;;4.47;;
22963;SDS011;11648;49.306;6.934;2023-10-09T14:45:54;7.82;;;4.03;;
22963;SDS011;11648;49.306;6.934;2023-10-09T14:48:22;8.73;;;4.63;;
22963;SDS011;11648;49.306;6.934;2023-10-09T14:50:55;10.15;;;4.53;;
22963;SDS011;11648;49.306;6.934;2023-10-09T14:53:31;9.90;;;4.45;;
22963;SDS011;11648;49.306;6.934;2023-10-09T14:56:01;9.20;;;4.10;;
22963;SDS011;11648;49.306;6.934;2023-10-09T14:58:29;7.30;;;4.30;;
22963;SDS011;11648;49.306;6.934;2023-10-09T15:01:06;8.93;;;3.87;;
22963;SDS011;11648;49.306;6.934;2023-10-09T15:03:37;6.23;;;3.97;;
22963;SDS011;11648;49.306;6.934;2023-10-09T15:06:04;7.77;;;4.30;;
22963;SDS011;11648;49.306;6.934;2023-10-09T15:08:35;10.00;;;4.27;;
22963;SDS011;11648;49.306;6.934;2023-10-09T15:11:02;9.23;;;3.90;;
22963;SDS011;11648;49.306;6.934;2023-10-09T15:13:28;6.47;;;4.03;;
22963;SDS011;11648;49.306;6.934;2023-10-09T15:15:56;8.83;;;4.27;;
22963;SDS011;11648;49.306;6.934;2023-10-09T15:18:23;7.57;;;4.60;;
22963;SDS011;11648;49.306;6.934;2023-10-09T15:20:51;7.43;;;4.00;;
22963;SDS011;11648;49.306;6.934;2023-10-09T15:23:18;8.53;;;4.07;;
22963;SDS011;11648;49.306;6.934;2023-10-09T15:25:48;7.03;;;4.10;;
22963;SDS011;11648;49.306;6.934;2023-10-09T15:28:19;8.87;;;4.03;;
22963;SDS011;11648;49.306;6.934;2023-10-09T15:30:47;6.93;;;3.90;;
22963;SDS011;11648;49.306;6.934;2023-10-09T15:33:14;7.63;;;4.40;;
22963;SDS011;11648;49.306;6.934;2023-10-09T15:35:43;6.87;;;3.97;;
22963;SDS011;11648;49.306;6.934;2023-10-09T15:38:12;11.17;;;4.20;;
22963;SDS011;11648;49.306;6.934;2023-10-09T15:40:40;8.73;;;4.07;;
22963;SDS011;11648;49.306;6.934;2023-10-09T15:43:10;10.00;;;4.70;;
22963;SDS011;11648;49.306;6.934;2023-10-09T15:45:40;7.50;;;3.90;;